createdAt,value
2018-09-13T00:02:10.860Z,98169.19
2018-09-13T00:04:39.065Z,98166.03
2018-09-13T00:07:07.259Z,98167.76
2018-09-13T00:09:35.529Z,98159.73
2018-09-13T00:12:03.859Z,98157.13
2018-09-13T00:14:32.101Z,98153.41
2018-09-13T00:17:00.375Z,98148.87
2018-09-13T00:19:28.577Z,98146.31
2018-09-13T00:21:56.774Z,98150.47
2018-09-13T00:24:25.192Z,98139.67
2018-09-13T00:26:53.431Z,98151.05
2018-09-13T00:29:21.644Z,98160.16
2018-09-13T00:31:49.966Z,98157.56
2018-09-13T00:34:18.193Z,98156.11
2018-09-13T00:36:46.385Z,98150.84
2018-09-13T00:39:14.576Z,98147.81
2018-09-13T00:41:42.849Z,98146.22
2018-09-13T00:44:11.053Z,98145.08
2018-09-13T00:46:39.332Z,98148.78
2018-09-13T00:49:07.650Z,98152.30
2018-09-13T00:51:35.977Z,98152.77
2018-09-13T00:54:04.210Z,98149.77
2018-09-13T00:56:32.613Z,98140.17
2018-09-13T00:59:00.805Z,98139.91
2018-09-13T01:01:29.089Z,98135.45
2018-09-13T01:03:57.285Z,98132.07
2018-09-13T01:06:25.537Z,98126.33
2018-09-13T01:08:53.833Z,98130.08
2018-09-13T01:11:22.121Z,98123.91
2018-09-13T01:13:50.474Z,98129.88
2018-09-13T01:16:18.640Z,98129.58
2018-09-13T01:18:46.955Z,98126.86
2018-09-13T01:21:15.274Z,98130.05
2018-09-13T01:23:43.469Z,98134.09
2018-09-13T01:26:11.765Z,98132.50
2018-09-13T01:28:40.041Z,98135.94
2018-09-13T01:31:08.338Z,98133.37
2018-09-13T01:33:36.630Z,98135.41
2018-09-13T01:36:04.936Z,98126.36
2018-09-13T01:38:33.229Z,98137.80
2018-09-13T01:41:01.428Z,98138.48
2018-09-13T01:43:29.637Z,98134.84
2018-09-13T01:45:57.817Z,98148.80
2018-09-13T01:48:26.018Z,98145.50
2018-09-13T01:50:54.215Z,98145.50
2018-09-13T01:53:22.415Z,98144.82
2018-09-13T01:55:50.730Z,98149.69
2018-09-13T01:58:18.959Z,98156.22
2018-09-13T02:00:47.147Z,98166.77
2018-09-13T02:03:15.348Z,98166.39
2018-09-13T02:05:43.541Z,98160.31
2018-09-13T02:08:11.733Z,98152.23
2018-09-13T02:10:39.921Z,98164.66
2018-09-13T02:13:08.109Z,98161.73
2018-09-13T02:15:36.297Z,98149.69
2018-09-13T02:18:04.485Z,98146.89
2018-09-13T02:20:32.679Z,98151.16
2018-09-13T02:23:00.962Z,98151.66
2018-09-13T02:25:29.157Z,98147.78
2018-09-13T02:27:57.360Z,98146.83
2018-09-13T02:30:25.551Z,98140.26
2018-09-13T02:32:53.809Z,98135.29
2018-09-13T02:35:22.009Z,98127.36
2018-09-13T02:37:50.409Z,98124.77
2018-09-13T02:40:18.610Z,98119.83
2018-09-13T02:42:46.793Z,98115.05
2018-09-13T02:45:15.065Z,98116.39
2018-09-13T02:47:43.254Z,98118.80
2018-09-13T02:50:11.458Z,98115.80
2018-09-13T02:52:39.713Z,98123.03
2018-09-13T02:55:07.925Z,98126.19
2018-09-13T02:57:36.201Z,98127.55
2018-09-13T03:00:04.721Z,98118.87
2018-09-13T03:02:32.913Z,98105.59
2018-09-13T03:05:01.162Z,98110.81
2018-09-13T03:07:29.357Z,98110.55
2018-09-13T03:09:57.581Z,98121.98
2018-09-13T03:12:25.778Z,98131.17
2018-09-13T03:14:53.970Z,98134.61
2018-09-13T03:17:22.154Z,98144.94
2018-09-13T03:19:50.349Z,98143.99
2018-09-13T03:22:18.547Z,98143.94
2018-09-13T03:24:46.753Z,98134.98
2018-09-13T03:27:14.937Z,98136.69
2018-09-13T03:29:43.161Z,98134.41
2018-09-13T03:32:11.353Z,98131.03
2018-09-13T03:34:39.557Z,98134.27
2018-09-13T03:37:07.773Z,98133.59
2018-09-13T03:39:35.977Z,98126.67
2018-09-13T03:42:04.346Z,98120.88
2018-09-13T03:44:32.478Z,98133.89
2018-09-13T03:47:00.677Z,98136.24
2018-09-13T03:49:28.933Z,98142.27
2018-09-13T03:51:57.113Z,98143.42
2018-09-13T03:54:25.329Z,98144.38
2018-09-13T03:56:53.581Z,98147.02
2018-09-13T03:59:21.914Z,98147.91
2018-09-13T04:01:50.125Z,98147.23
2018-09-13T04:04:18.373Z,98141.20
2018-09-13T04:06:46.557Z,98136.63
2018-09-13T04:09:14.836Z,98140.24
2018-09-13T04:11:42.957Z,98138.34
2018-09-13T04:14:11.165Z,98123.12
2018-09-13T04:16:39.413Z,98126.20
2018-09-13T04:19:07.605Z,98120.63
2018-09-13T04:21:35.805Z,98115.62
2018-09-13T04:24:04.009Z,98104.45
2018-09-13T04:26:32.305Z,98101.22
2018-09-13T04:29:00.537Z,98097.34
2018-09-13T04:31:28.805Z,98095.30
2018-09-13T04:33:57.005Z,98090.38
2018-09-13T04:36:25.285Z,98091.20
2018-09-13T04:38:53.768Z,98086.77
2018-09-13T04:41:22.002Z,98087.84
2018-09-13T04:43:50.205Z,98087.16
2018-09-13T04:46:18.437Z,98091.20
2018-09-13T04:48:46.635Z,98081.43
2018-09-13T04:51:14.913Z,98077.51
2018-09-13T04:53:43.122Z,98086.47
2018-09-13T04:56:11.371Z,98105.56
2018-09-13T04:58:39.601Z,98110.50
2018-09-13T05:01:07.872Z,98104.80
2018-09-13T05:03:36.169Z,98103.08
2018-09-13T05:06:04.416Z,98104.84
2018-09-13T05:08:32.613Z,98127.14
2018-09-13T05:11:00.807Z,98129.50
2018-09-13T05:13:29.013Z,98127.46
2018-09-13T05:15:57.301Z,98130.91
2018-09-13T05:18:25.506Z,98127.96
2018-09-13T05:20:53.697Z,98125.91
2018-09-13T05:23:23.591Z,98128.27
2018-09-13T05:25:51.913Z,98123.66
2018-09-13T05:28:20.185Z,98127.09
2018-09-13T05:30:48.469Z,98119.88
2018-09-13T05:33:16.764Z,98117.03
2018-09-13T05:35:44.950Z,98103.87
2018-09-13T05:38:13.237Z,98090.17
2018-09-13T05:40:41.445Z,98078.33
2018-09-13T05:43:09.749Z,98077.90
2018-09-13T05:45:38.018Z,98080.48
2018-09-13T05:48:06.294Z,98075.59
2018-09-13T05:50:34.496Z,98083.74
2018-09-13T05:53:02.689Z,98088.20
2018-09-13T05:55:30.979Z,98091.95
2018-09-13T05:57:59.241Z,98105.22
2018-09-13T06:00:27.543Z,98111.30
2018-09-13T06:02:55.986Z,98113.69
2018-09-13T06:05:24.198Z,98117.81
2018-09-13T06:07:52.579Z,98123.61
2018-09-13T06:10:20.770Z,98122.94
2018-09-13T06:12:48.969Z,98127.73
2018-09-13T06:15:17.157Z,98118.92
2018-09-13T06:17:45.406Z,98121.27
2018-09-13T06:20:13.617Z,98127.53
2018-09-13T06:22:41.815Z,98135.22
2018-09-13T06:25:10.017Z,98129.28
2018-09-13T06:27:38.222Z,98132.28
2018-09-13T06:30:06.425Z,98136.39
2018-09-13T06:32:34.626Z,98139.67
2018-09-13T06:35:02.817Z,98122.91
2018-09-13T06:37:31.058Z,98117.61
2018-09-13T06:39:59.260Z,98113.13
2018-09-13T06:42:27.532Z,98113.80
2018-09-13T06:44:55.673Z,98120.06
2018-09-13T06:47:23.874Z,98132.92
2018-09-13T06:49:52.118Z,98136.09
2018-09-13T06:52:20.317Z,98138.89
2018-09-13T06:54:49.514Z,98140.60
2018-09-13T06:57:17.736Z,98138.27
2018-09-13T06:59:45.926Z,98134.56
2018-09-13T07:02:14.141Z,98138.53
2018-09-13T07:04:42.611Z,98145.52
2018-09-13T07:07:10.994Z,98146.95
2018-09-13T07:09:39.198Z,98141.36
2018-09-13T07:12:07.389Z,98134.08
2018-09-13T07:14:35.626Z,98129.92
2018-09-13T07:17:03.821Z,98129.47
2018-09-13T07:19:32.027Z,98136.45
2018-09-13T07:22:00.519Z,98132.09
2018-09-13T07:24:28.717Z,98134.43
2018-09-13T07:26:56.952Z,98139.56
2018-09-13T07:29:25.234Z,98143.11
2018-09-13T07:31:53.453Z,98136.72
2018-09-13T07:34:21.661Z,98143.05
2018-09-13T07:36:49.908Z,98143.16
2018-09-13T07:39:18.081Z,98140.36
2018-09-13T07:41:46.278Z,98134.80
2018-09-13T07:44:14.485Z,98132.65
2018-09-13T07:46:42.705Z,98129.09
2018-09-13T07:49:10.974Z,98131.73
2018-09-13T07:51:39.138Z,98131.30
2018-09-13T07:54:07.337Z,98127.79
2018-09-13T07:56:35.594Z,98134.11
2018-09-13T07:59:03.841Z,98137.70
2018-09-13T08:01:32.022Z,98141.56
2018-09-13T08:04:00.221Z,98138.67
2018-09-13T08:06:28.422Z,98143.14
2018-09-13T08:08:56.663Z,98138.72
2018-09-13T08:13:52.141Z,98142.14
2018-09-13T08:16:20.343Z,98142.93
2018-09-13T08:18:48.549Z,98150.94
2018-09-13T08:21:16.794Z,98145.62
2018-09-13T08:23:45.037Z,98150.70
2018-09-13T08:26:13.321Z,98147.59
2018-09-13T08:28:41.522Z,98149.45
2018-09-13T08:31:09.710Z,98143.12
2018-09-13T08:33:37.917Z,98145.41
2018-09-13T08:36:06.108Z,98137.41
2018-09-13T08:38:34.305Z,98142.91
2018-09-13T08:41:02.513Z,98145.53
2018-09-13T08:43:30.737Z,98149.22
2018-09-13T08:45:58.943Z,98145.94
2018-09-13T08:48:27.169Z,98150.27
2018-09-13T08:50:55.461Z,98151.07
2018-09-13T08:53:23.658Z,98152.52
2018-09-13T08:55:51.845Z,98158.38
2018-09-13T08:58:20.047Z,98149.94
2018-09-13T09:00:48.332Z,98150.53
2018-09-13T09:03:16.458Z,98150.98
2018-09-13T09:05:44.670Z,98150.17
2018-09-13T09:08:12.877Z,98156.60
2018-09-13T09:10:41.069Z,98154.59
2018-09-13T09:13:09.585Z,98155.97
2018-09-13T09:15:37.780Z,98154.34
2018-09-13T09:18:06.510Z,98153.12
2018-09-13T09:20:34.725Z,98153.16
2018-09-13T09:23:02.937Z,98162.47
2018-09-13T09:25:31.125Z,98165.48
2018-09-13T09:27:59.385Z,98159.81
2018-09-13T09:30:27.589Z,98159.59
2018-09-13T09:32:55.826Z,98161.20
2018-09-13T09:35:24.113Z,98165.22
2018-09-13T09:37:52.313Z,98163.27
2018-09-13T09:40:20.551Z,98165.81
2018-09-13T09:42:48.844Z,98166.39
2018-09-13T09:45:17.298Z,98163.72
2018-09-13T09:47:45.489Z,98166.31
2018-09-13T09:50:13.817Z,98174.33
2018-09-13T09:52:42.098Z,98173.91
2018-09-13T09:55:10.309Z,98170.30
2018-09-13T09:57:38.506Z,98173.84
2018-09-13T10:00:06.713Z,98174.44
2018-09-13T10:02:34.930Z,98176.06
2018-09-13T10:05:03.189Z,98170.98
2018-09-13T10:07:31.397Z,98174.52
2018-09-13T10:09:59.614Z,98171.50
2018-09-13T10:12:27.912Z,98170.88
2018-09-13T10:15:01.363Z,98179.94
2018-09-13T10:17:34.919Z,98174.84
2018-09-13T10:20:08.573Z,98179.10
2018-09-13T10:22:42.297Z,98173.88
2018-09-13T10:25:15.829Z,98177.07
2018-09-13T10:27:49.394Z,98179.36
2018-09-13T10:30:22.927Z,98177.66
2018-09-13T10:32:56.395Z,98184.69
2018-09-13T10:35:29.925Z,98181.28
2018-09-13T10:38:03.458Z,98183.11
2018-09-13T10:40:37.043Z,98185.14
2018-09-13T10:43:10.677Z,98180.52
2018-09-13T10:46:46.920Z,98184.34
2018-09-13T10:49:20.493Z,98174.52
2018-09-13T10:51:54.022Z,98173.66
2018-09-13T10:54:27.463Z,98172.03
2018-09-13T10:56:55.807Z,98171.66
2018-09-13T10:59:24.281Z,98171.28
2018-09-13T11:01:52.514Z,98176.48
2018-09-13T11:04:20.711Z,98175.09
2018-09-13T11:06:49.137Z,98156.40
2018-09-13T11:09:17.405Z,98175.91
2018-09-13T11:11:45.753Z,98170.05
2018-09-13T11:14:18.065Z,98173.88
2018-09-13T11:16:46.383Z,98161.83
2018-09-13T11:19:14.605Z,98167.84
2018-09-13T11:21:42.943Z,98159.27
2018-09-13T11:24:11.078Z,98159.34
2018-09-13T11:26:41.025Z,98153.50
2018-09-13T11:29:09.368Z,98157.58
2018-09-13T11:31:37.654Z,98157.60
2018-09-13T11:34:06.093Z,98160.84
2018-09-13T11:36:34.418Z,98162.45
2018-09-13T11:39:02.687Z,98160.81
2018-09-13T11:41:30.966Z,98148.16
2018-09-13T11:43:59.182Z,98150.34
2018-09-13T11:46:27.424Z,98155.78
2018-09-13T11:48:55.709Z,98150.05
2018-09-13T11:51:23.953Z,98157.94
2018-09-13T11:53:52.222Z,98165.84
2018-09-13T11:56:20.561Z,98160.94
2018-09-13T11:58:48.865Z,98161.55
2018-09-13T12:01:17.098Z,98161.98
2018-09-13T12:03:45.626Z,98165.05
2018-09-13T12:06:13.869Z,98155.80
2018-09-13T12:08:42.069Z,98149.06
2018-09-13T12:11:10.293Z,98154.74
2018-09-13T12:13:38.517Z,98154.57
2018-09-13T12:16:06.794Z,98134.42
2018-09-13T12:18:35.008Z,98139.02
2018-09-13T12:21:03.387Z,98138.62
2018-09-13T12:23:31.643Z,98147.75
2018-09-13T12:25:59.942Z,98144.53
2018-09-13T12:28:28.175Z,98145.92
2018-09-13T12:30:56.389Z,98138.70
2018-09-13T12:33:24.629Z,98135.28
2018-09-13T12:35:52.893Z,98133.28
2018-09-13T12:38:21.164Z,98131.08
2018-09-13T12:40:49.405Z,98125.64
2018-09-13T12:43:17.602Z,98127.26
2018-09-13T12:45:45.846Z,98123.66
2018-09-13T12:48:14.090Z,98115.61
2018-09-13T12:50:42.358Z,98121.03
2018-09-13T12:53:10.597Z,98110.98
2018-09-13T12:55:43.937Z,98102.28
2018-09-13T12:58:12.165Z,98097.30
2018-09-13T13:00:40.386Z,98091.38
2018-09-13T13:03:08.584Z,98090.53
2018-09-13T13:05:36.816Z,98083.05
2018-09-13T13:08:05.022Z,98071.88
2018-09-13T13:10:33.278Z,98077.23
2018-09-13T13:13:01.457Z,98077.39
2018-09-13T13:15:29.673Z,98073.20
2018-09-13T13:17:57.877Z,98072.75
2018-09-13T13:20:26.305Z,98067.13
2018-09-13T13:22:54.493Z,98067.55
2018-09-13T13:25:22.702Z,98055.20
2018-09-13T13:27:51.157Z,98058.37
2018-09-13T13:30:19.436Z,98061.98
2018-09-13T13:32:47.600Z,98055.61
2018-09-13T13:35:15.814Z,98058.05
2018-09-13T13:37:44.051Z,98051.35
2018-09-13T13:40:12.279Z,98050.42
2018-09-13T13:42:40.473Z,98060.41
2018-09-13T13:45:08.677Z,98055.61
2018-09-13T13:47:36.877Z,98058.70
2018-09-13T13:50:05.264Z,98060.75
2018-09-13T13:52:33.471Z,98057.59
2018-09-13T13:55:01.741Z,98060.31
2018-09-13T13:57:29.937Z,98059.11
2018-09-13T13:59:58.367Z,98061.66
2018-09-13T14:02:26.670Z,98060.08
2018-09-13T14:04:55.081Z,98055.22
2018-09-13T14:07:23.393Z,98055.60
2018-09-13T14:09:51.644Z,98064.84
2018-09-13T14:12:20.259Z,98064.67
2018-09-13T14:14:48.623Z,98067.95
2018-09-13T14:17:16.914Z,98059.06
2018-09-13T14:19:45.258Z,98061.08
2018-09-13T14:22:13.469Z,98057.98
2018-09-13T14:24:41.857Z,98054.02
2018-09-13T14:27:10.134Z,98056.91
2018-09-13T14:29:38.479Z,98063.91
2018-09-13T14:32:06.771Z,98064.33
2018-09-13T14:34:35.078Z,98062.27
2018-09-13T14:37:03.357Z,98069.55
2018-09-13T14:39:31.622Z,98070.84
2018-09-13T14:41:59.825Z,98068.14
2018-09-13T14:44:28.045Z,98070.56
2018-09-13T14:46:56.242Z,98083.05
2018-09-13T14:49:24.549Z,98080.20
2018-09-13T14:51:52.744Z,98076.39
2018-09-13T14:54:21.010Z,98079.98
2018-09-13T14:56:49.249Z,98078.20
2018-09-13T14:59:17.553Z,98088.23
2018-09-13T15:01:45.804Z,98088.86
2018-09-13T15:04:14.031Z,98087.79
2018-09-13T15:06:42.281Z,98100.19
2018-09-13T15:09:12.365Z,98107.79
2018-09-13T15:11:40.626Z,98120.86
2018-09-13T15:14:08.813Z,98124.83
2018-09-13T15:16:37.010Z,98134.64
2018-09-13T15:19:05.209Z,98135.25
2018-09-13T15:21:33.425Z,98138.03
2018-09-13T15:24:01.901Z,98145.93
2018-09-13T15:26:30.578Z,98139.69
2018-09-13T15:28:58.765Z,98147.40
2018-09-13T15:31:27.034Z,98155.08
2018-09-13T15:33:55.227Z,98167.36
2018-09-13T15:36:23.470Z,98159.70
2018-09-13T15:38:51.661Z,98164.41
2018-09-13T15:41:19.878Z,98170.09
2018-09-13T15:43:48.125Z,98170.16
2018-09-13T15:46:16.346Z,98175.32
2018-09-13T15:48:44.739Z,98173.59
2018-09-13T15:51:12.993Z,98168.51
2018-09-13T15:53:41.305Z,98176.69
2018-09-13T15:56:09.719Z,98186.25
2018-09-13T15:58:37.925Z,98196.30
2018-09-13T16:01:06.153Z,98203.84
2018-09-13T16:03:34.330Z,98215.50
2018-09-13T16:06:02.568Z,98228.04
2018-09-13T16:08:30.770Z,98235.08
2018-09-13T16:10:59.045Z,98227.59
2018-09-13T16:13:27.273Z,98230.37
2018-09-13T16:15:57.323Z,98229.21
2018-09-13T16:18:26.423Z,98221.72
2018-09-13T16:20:54.839Z,98226.59
2018-09-13T16:23:22.990Z,98225.19
2018-09-13T16:25:52.098Z,98220.43
2018-09-13T16:28:20.298Z,98219.09
2018-09-13T16:30:48.551Z,98213.09
2018-09-13T16:33:16.753Z,98210.30
2018-09-13T16:35:46.041Z,98213.28
2018-09-13T16:38:19.601Z,98215.86
2018-09-13T16:40:53.168Z,98212.54
2018-09-13T16:43:26.684Z,98205.91
2018-09-13T16:45:54.894Z,98202.07
2018-09-13T16:48:27.261Z,98195.84
2018-09-13T16:50:55.453Z,98200.08
2018-09-13T16:53:23.646Z,98194.52
2018-09-13T16:55:51.849Z,98178.86
2018-09-13T16:58:20.049Z,98188.92
2018-09-13T17:00:48.282Z,98190.31
2018-09-13T17:03:16.514Z,98190.20
2018-09-13T17:05:44.822Z,98196.98
2018-09-13T17:08:13.030Z,98189.44
2018-09-13T17:10:41.250Z,98192.39
2018-09-13T17:13:09.488Z,98190.23
2018-09-13T17:15:37.734Z,98180.68
2018-09-13T17:18:05.942Z,98187.28
2018-09-13T17:20:34.170Z,98187.09
2018-09-13T17:23:02.433Z,98182.20
2018-09-13T17:25:30.701Z,98186.63
2018-09-13T17:27:58.993Z,98186.97
2018-09-13T17:30:27.193Z,98186.38
2018-09-13T17:32:55.445Z,98184.99
2018-09-13T17:35:23.641Z,98178.19
2018-09-13T17:38:35.922Z,98180.60
2018-09-13T17:41:04.134Z,98179.38
2018-09-13T17:43:32.337Z,98177.53
2018-09-13T17:46:00.625Z,98173.97
2018-09-13T17:48:28.981Z,98180.20
2018-09-13T17:50:57.173Z,98168.84
2018-09-13T17:53:25.369Z,98173.83
2018-09-13T17:55:53.575Z,98184.30
2018-09-13T17:58:21.783Z,98182.17
2018-09-13T18:00:50.051Z,98187.33
2018-09-13T18:03:18.313Z,98182.36
2018-09-13T18:05:46.537Z,98184.26
2018-09-13T18:08:14.743Z,98188.36
2018-09-13T18:10:42.929Z,98184.63
2018-09-13T18:13:11.186Z,98184.20
2018-09-13T18:15:49.018Z,98182.78
2018-09-13T18:18:17.296Z,98183.97
2018-09-13T18:20:45.573Z,98186.30
2018-09-13T18:23:13.805Z,98180.73
2018-09-13T18:25:42.050Z,98168.88
2018-09-13T18:28:10.233Z,98182.05
2018-09-13T18:30:38.422Z,98181.22
2018-09-13T18:33:06.681Z,98186.16
2018-09-13T18:35:34.977Z,98189.23
2018-09-13T18:38:03.338Z,98189.05
2018-09-13T18:40:31.581Z,98186.43
2018-09-13T18:42:59.897Z,98193.08
2018-09-13T18:45:28.374Z,98180.31
2018-09-13T18:47:56.873Z,98191.84
2018-09-13T18:50:25.146Z,98202.90
2018-09-13T18:52:53.451Z,98193.99
2018-09-13T18:55:22.129Z,98196.55
2018-09-13T18:57:50.425Z,98198.47
2018-09-13T19:00:18.734Z,98198.62
2018-09-13T19:02:47.001Z,98200.00
2018-09-13T19:05:15.345Z,98204.57
2018-09-13T19:07:43.581Z,98205.30
2018-09-13T19:10:11.882Z,98211.58
2018-09-13T19:12:40.157Z,98205.03
2018-09-13T19:15:08.470Z,98208.34
2018-09-13T19:17:36.745Z,98219.13
2018-09-13T19:20:05.266Z,98228.03
2018-09-13T19:22:33.578Z,98226.23
2018-09-13T19:25:01.918Z,98225.64
2018-09-13T19:27:30.205Z,98228.48
2018-09-13T19:29:58.485Z,98239.76
2018-09-13T19:32:26.844Z,98239.34
2018-09-13T19:34:55.075Z,98248.32
2018-09-13T19:37:23.359Z,98245.81
2018-09-13T19:39:51.634Z,98247.50
2018-09-13T19:42:19.887Z,98251.77
2018-09-13T19:44:48.078Z,98244.47
2018-09-13T19:47:16.271Z,98244.76
2018-09-13T19:49:44.509Z,98250.13
2018-09-13T19:52:12.798Z,98245.77
2018-09-13T19:54:41.073Z,98241.84
2018-09-13T19:57:09.362Z,98218.52
2018-09-13T19:59:37.649Z,98234.98
2018-09-13T20:02:05.985Z,98230.72
2018-09-13T20:04:34.486Z,98233.98
2018-09-13T20:07:02.638Z,98238.52
2018-09-13T20:09:30.847Z,98237.09
2018-09-13T20:11:59.053Z,98244.88
2018-09-13T20:14:27.265Z,98244.76
2018-09-13T20:16:55.495Z,98248.73
2018-09-13T20:19:23.788Z,98251.48
2018-09-13T20:21:52.078Z,98247.20
2018-09-13T20:24:20.513Z,98253.66
2018-09-13T20:26:48.945Z,98258.48
2018-09-13T20:29:24.138Z,98257.34
2018-09-13T20:31:52.368Z,98257.63
2018-09-13T20:34:20.693Z,98246.28
2018-09-13T20:36:49.316Z,98245.89
2018-09-13T20:39:17.649Z,98257.24
2018-09-13T20:41:45.876Z,98260.65
2018-09-13T20:44:15.749Z,98263.35
2018-09-13T20:46:43.945Z,98259.66
2018-09-13T20:49:12.254Z,98256.09
2018-09-13T20:51:40.560Z,98243.65
2018-09-13T20:54:08.901Z,98261.80
2018-09-13T20:56:37.214Z,98263.73
2018-09-13T20:59:05.565Z,98267.19
2018-09-13T21:01:33.873Z,98269.31
2018-09-13T21:04:02.117Z,98268.41
2018-09-13T21:06:30.384Z,98267.23
2018-09-13T21:08:58.628Z,98267.39
2018-09-13T21:11:27.358Z,98266.26
2018-09-13T21:13:55.645Z,98265.72
2018-09-13T21:16:24.158Z,98264.27
2018-09-13T21:18:52.397Z,98264.85
2018-09-13T21:21:20.697Z,98257.67
2018-09-13T21:23:48.927Z,98258.66
2018-09-13T21:26:17.190Z,98254.22
2018-09-13T21:28:45.469Z,98245.91
2018-09-13T21:31:13.849Z,98254.05
2018-09-13T21:33:42.058Z,98256.88
2018-09-13T21:36:10.356Z,98267.70
2018-09-13T21:38:38.673Z,98264.09
2018-09-13T21:41:06.956Z,98260.73
2018-09-13T21:43:35.197Z,98259.97
2018-09-13T21:46:03.410Z,98262.59
2018-09-13T21:48:31.613Z,98262.95
2018-09-13T21:50:59.852Z,98260.42
2018-09-13T21:53:28.092Z,98266.61
2018-09-13T21:55:59.309Z,98275.75
2018-09-13T21:58:27.593Z,98267.30
2018-09-13T22:00:55.773Z,98266.20
2018-09-13T22:03:24.080Z,98265.28
2018-09-13T22:05:52.350Z,98262.74
2018-09-13T22:08:20.559Z,98271.52
2018-09-13T22:10:48.793Z,98269.59
2018-09-13T22:13:17.006Z,98261.12
2018-09-13T22:15:45.317Z,98263.20
2018-09-13T22:18:13.568Z,98268.14
2018-09-13T22:20:41.773Z,98262.15
2018-09-13T22:23:10.061Z,98264.63
2018-09-13T22:25:38.357Z,98257.48
2018-09-13T22:28:06.581Z,98252.09
2018-09-13T22:30:34.785Z,98258.24
2018-09-13T22:33:03.301Z,98252.70
2018-09-13T22:35:31.597Z,98258.67
2018-09-13T22:37:59.905Z,98256.40
2018-09-13T22:40:28.464Z,98256.18
2018-09-13T22:42:56.694Z,98259.45
2018-09-13T22:45:25.029Z,98259.83
2018-09-13T22:47:53.283Z,98263.69
2018-09-13T22:50:21.609Z,98262.37
2018-09-13T22:52:49.817Z,98257.66
2018-09-13T22:55:18.173Z,98250.03
2018-09-13T22:57:46.505Z,98253.97
2018-09-13T23:00:14.813Z,98262.13
2018-09-13T23:02:48.598Z,98269.52
2018-09-13T23:05:17.510Z,98259.44
2018-09-13T23:07:45.991Z,98262.31
2018-09-13T23:10:14.243Z,98261.84
2018-09-13T23:12:42.502Z,98258.94
2018-09-13T23:15:10.801Z,98264.41
2018-09-13T23:17:39.185Z,98268.25
2018-09-13T23:20:07.393Z,98250.81
2018-09-13T23:22:35.667Z,98259.72
2018-09-13T23:25:04.117Z,98266.45
2018-09-13T23:27:32.317Z,98266.09
2018-09-13T23:30:00.630Z,98269.56
2018-09-13T23:32:28.854Z,98271.65
2018-09-13T23:34:57.110Z,98273.44
2018-09-13T23:37:25.371Z,98276.77
2018-09-13T23:39:53.879Z,98268.61
2018-09-13T23:42:21.950Z,98276.50
2018-09-13T23:44:50.265Z,98276.94
2018-09-13T23:47:19.242Z,98278.90
2018-09-13T23:49:47.565Z,98275.95
2018-09-13T23:52:15.897Z,98278.33
2018-09-13T23:54:44.115Z,98269.88
2018-09-13T23:57:12.349Z,98275.84
2018-09-13T23:59:40.637Z,98278.91
